Time;durP1;ratioP1;P1;durP2;ratioP2;P2;SDS_P1;SDS_P2;PMS_P1;PMS_P2;Temp;Humidity;BMP_temperature;BMP_pressure;BME280_temperature;BME280_humidity;BME280_pressure;Samples;Min_cycle;Max_cycle;Signal;HPM_P1;HPM_P2
2022/10/11 00:01:20;;;;;;;3.12;1.00;;;18.60;68.50;;;;;;2347837;53;21643;-76
2022/10/11 00:03:49;;;;;;;1.95;0.80;;;18.50;68.50;;;;;;2378226;52;20948;-76
2022/10/11 00:06:15;;;;;;;4.50;0.90;;;18.50;68.40;;;;;;2540557;53;20984;-76
2022/10/11 00:08:42;;;;;;;1.75;0.68;;;18.50;68.50;;;;;;2561576;53;20893;-77
2022/10/11 00:11:09;;;;;;;3.37;1.00;;;18.40;68.50;;;;;;2343605;53;20912;-76
2022/10/11 00:13:35;;;;;;;2.37;0.75;;;18.40;68.40;;;;;;2343493;53;20944;-77
2022/10/11 00:16:06;;;;;;;3.78;0.80;;;18.40;68.50;;;;;;2367695;53;21456;-76
2022/10/11 00:18:33;;;;;;;2.50;0.93;;;18.40;68.20;;;;;;2347043;53;21563;-76
2022/10/11 00:21:03;;;;;;;2.42;0.90;;;18.30;68.40;;;;;;2343658;53;21541;-78
2022/10/11 00:23:30;;;;;;;2.03;0.88;;;18.30;68.40;;;;;;2419843;53;20960;-76
2022/10/11 00:26:02;;;;;;;2.58;0.88;;;18.20;68.30;;;;;;2344322;54;20964;-76
2022/10/11 00:28:29;;;;;;;2.20;0.95;;;18.20;68.30;;;;;;2344138;53;21346;-76
2022/10/11 00:30:55;;;;;;;7.20;1.25;;;18.10;68.40;;;;;;2343362;54;21369;-76
2022/10/11 00:33:22;;;;;;;3.20;1.10;;;18.10;68.40;;;;;;2344095;53;20992;-76
2022/10/11 00:35:48;;;;;;;2.08;0.88;;;18.10;68.50;;;;;;2542989;53;20916;-76
2022/10/11 00:38:15;;;;;;;2.70;0.77;;;18.00;68.50;;;;;;2348418;53;20971;-75
2022/10/11 00:40:42;;;;;;;2.92;0.80;;;18.00;68.60;;;;;;2342734;53;21009;-76
2022/10/11 00:43:20;;;;;;;3.62;1.00;;;18.00;68.60;;;;;;2406812;53;20945;-78
2022/10/11 00:46:59;;;;;;;2.95;1.10;;;17.90;68.30;;;;;;2394344;53;20941;-77
2022/10/11 00:49:40;;;;;;;2.42;0.80;;;17.90;67.90;;;;;;2377093;53;21000;-77
2022/10/11 00:52:40;;;;;;;2.00;0.90;;;17.90;68.60;;;;;;2412936;53;21730;-76
2022/10/11 00:55:09;;;;;;;2.85;0.77;;;17.90;68.20;;;;;;2344788;53;20984;-76
2022/10/11 00:57:37;;;;;;;2.83;0.80;;;17.80;68.80;;;;;;2344590;53;21016;-76
2022/10/11 01:00:06;;;;;;;3.85;1.08;;;17.80;68.90;;;;;;2588823;52;20923;-76
2022/10/11 01:02:33;;;;;;;3.92;1.10;;;17.80;69.00;;;;;;2344797;53;20947;-76
2022/10/11 01:05:00;;;;;;;3.10;1.65;;;17.70;68.90;;;;;;2342992;53;21001;-76
2022/10/11 01:07:37;;;;;;;2.62;1.30;;;17.70;69.00;;;;;;2580923;53;20996;-77
2022/10/11 01:10:04;;;;;;;6.00;1.40;;;17.70;69.10;;;;;;2338342;54;21007;-76
2022/10/11 01:12:32;;;;;;;4.18;1.00;;;17.70;69.20;;;;;;2343655;53;20988;-76
2022/10/11 01:18:02;;;;;;;2.37;0.80;;;17.70;69.20;;;;;;2324411;54;20996;-76
2022/10/11 01:21:09;;;;;;;4.53;0.90;;;17.70;68.40;;;;;;2590839;53;20946;-76
2022/10/11 01:26:31;;;;;;;2.08;0.80;;;17.70;68.90;;;;;;2344591;54;21433;-78
2022/10/11 01:30:08;;;;;;;2.78;0.70;;;17.70;68.50;;;;;;2588715;53;20980;-78
2022/10/11 01:34:50;;;;;;;2.87;0.77;;;17.70;69.20;;;;;;2392481;53;21542;-76
2022/10/11 01:38:10;;;;;;;1.95;0.80;;;17.70;69.00;;;;;;2346828;53;20907;-77
2022/10/11 01:40:41;;;;;;;3.65;0.88;;;17.70;69.00;;;;;;2488357;53;20988;-76
2022/10/11 01:43:10;;;;;;;4.30;1.05;;;17.70;69.70;;;;;;2589272;53;21556;-76
2022/10/11 01:45:40;;;;;;;5.07;1.40;;;17.70;69.90;;;;;;2344301;54;20935;-77
2022/10/11 01:48:08;;;;;;;4.15;1.00;;;17.70;70.00;;;;;;2344390;54;21036;-77
2022/10/11 01:50:41;;;;;;;4.72;1.35;;;17.70;70.10;;;;;;2343675;54;20984;-76
2022/10/11 01:53:39;;;;;;;3.92;1.60;;;17.70;70.20;;;;;;2588961;53;20942;-77
2022/10/11 01:56:40;;;;;;;2.65;1.10;;;17.70;69.90;;;;;;2343785;53;21462;-76
2022/10/11 01:59:42;;;;;;;4.43;1.10;;;17.70;70.00;;;;;;2385057;53;21452;-76
2022/10/11 02:03:41;;;;;;;4.07;1.20;;;17.70;70.10;;;;;;2344146;54;20929;-76
2022/10/11 02:06:16;;;;;;;5.10;1.02;;;17.80;69.90;;;;;;2345624;53;21710;-76
2022/10/11 02:10:47;;;;;;;3.00;1.33;;;17.80;70.50;;;;;;2590433;53;21430;-76
2022/10/11 02:14:19;;;;;;;2.50;1.10;;;17.90;69.90;;;;;;2344272;54;20976;-76
2022/10/11 02:17:06;;;;;;;5.18;1.55;;;17.90;70.30;;;;;;2420802;53;21905;-76
2022/10/11 02:19:37;;;;;;;4.57;1.40;;;17.90;70.60;;;;;;2343596;54;20947;-76
2022/10/11 02:22:07;;;;;;;3.00;0.93;;;17.90;70.70;;;;;;2344325;53;21781;-78
2022/10/11 02:24:37;;;;;;;3.45;1.37;;;17.90;70.80;;;;;;2343878;53;20956;-78
2022/10/11 02:27:08;;;;;;;7.15;1.75;;;17.90;70.90;;;;;;2357447;53;21012;-76
2022/10/11 02:29:36;;;;;;;3.87;1.40;;;18.00;71.00;;;;;;2342487;53;21452;-75
2022/10/11 02:32:04;;;;;;;3.55;1.15;;;18.00;71.10;;;;;;2343944;53;20924;-78
2022/10/11 02:34:35;;;;;;;3.28;1.17;;;18.00;71.10;;;;;;2366256;53;21027;-76
2022/10/11 02:37:41;;;;;;;3.42;1.27;;;18.10;71.20;;;;;;2343521;54;20987;-77
2022/10/11 02:40:31;;;;;;;5.10;1.60;;;18.10;70.90;;;;;;2343419;54;20948;-76
2022/10/11 02:43:24;;;;;;;4.00;1.33;;;18.10;70.90;;;;;;2495988;53;21429;-76
2022/10/11 02:45:57;;;;;;;4.00;1.80;;;18.20;71.20;;;;;;2440433;53;20995;-77
2022/10/11 02:48:24;;;;;;;4.30;1.40;;;18.20;71.30;;;;;;2349968;53;20969;-77
2022/10/11 02:50:50;;;;;;;3.83;1.33;;;18.20;71.40;;;;;;2542143;52;21008;-76
2022/10/11 02:53:17;;;;;;;2.90;1.30;;;18.20;71.40;;;;;;2343307;53;20957;-76
2022/10/11 02:55:43;;;;;;;3.92;1.50;;;18.30;71.50;;;;;;2463787;53;21840;-77
2022/10/11 02:58:12;;;;;;;5.15;1.40;;;18.30;71.50;;;;;;2420346;53;21932;-77
2022/10/11 03:00:38;;;;;;;2.78;1.35;;;18.30;71.50;;;;;;2345623;53;20968;-76
2022/10/11 03:03:05;;;;;;;5.62;1.60;;;18.40;71.70;;;;;;2347368;53;21015;-75
2022/10/11 03:05:36;;;;;;;4.78;1.40;;;18.40;71.60;;;;;;2341309;53;20960;-76
2022/10/11 03:08:02;;;;;;;5.20;1.52;;;18.40;71.70;;;;;;2345131;53;21038;-76
2022/10/11 03:10:29;;;;;;;4.78;1.50;;;18.50;71.70;;;;;;2339967;53;21016;-76
2022/10/11 03:12:55;;;;;;;3.83;1.58;;;18.50;71.70;;;;;;2500504;52;20988;-76
2022/10/11 03:15:21;;;;;;;5.68;1.70;;;18.50;71.60;;;;;;2359896;53;21132;-76
2022/10/11 03:17:48;;;;;;;3.05;1.50;;;18.50;71.60;;;;;;2342929;53;22147;-76
2022/10/11 03:20:15;;;;;;;4.00;1.80;;;18.60;71.70;;;;;;2343784;54;21008;-78
2022/10/11 03:22:41;;;;;;;3.45;1.45;;;18.60;71.60;;;;;;2344654;53;21737;-77
2022/10/11 03:25:11;;;;;;;3.65;1.20;;;18.60;71.60;;;;;;2344687;53;20941;-77
2022/10/11 03:27:40;;;;;;;5.47;1.52;;;18.70;71.70;;;;;;2441972;53;20944;-77
2022/10/11 03:30:10;;;;;;;5.90;1.52;;;18.70;71.60;;;;;;2343765;54;20932;-78
2022/10/11 03:32:36;;;;;;;4.05;1.80;;;18.70;71.60;;;;;;2343669;54;21395;-76
2022/10/11 03:35:02;;;;;;;5.30;1.75;;;18.70;71.60;;;;;;2344080;53;20968;-76
2022/10/11 03:37:29;;;;;;;4.50;1.83;;;18.70;71.60;;;;;;2342925;54;20973;-76
2022/10/11 03:39:56;;;;;;;4.45;2.00;;;18.70;71.60;;;;;;2345178;53;20977;-76
2022/10/11 03:42:22;;;;;;;4.55;1.50;;;18.80;71.70;;;;;;2343443;53;20976;-76
2022/10/11 03:44:50;;;;;;;4.30;1.65;;;18.80;71.70;;;;;;2342646;54;21072;-77
2022/10/11 03:47:20;;;;;;;4.03;1.55;;;18.80;71.60;;;;;;2343389;53;20924;-76
2022/10/11 03:49:46;;;;;;;4.22;1.45;;;18.80;71.50;;;;;;2343800;54;21004;-76
2022/10/11 03:52:13;;;;;;;5.28;1.27;;;18.80;71.60;;;;;;2581697;53;21020;-76
2022/10/11 03:54:40;;;;;;;3.10;1.50;;;18.80;71.50;;;;;;2589447;53;21032;-76
2022/10/11 03:57:06;;;;;;;5.15;1.62;;;18.90;71.60;;;;;;2342934;53;21208;-76
2022/10/11 03:59:33;;;;;;;5.93;1.65;;;18.90;71.60;;;;;;2463499;53;20956;-76
2022/10/11 04:01:59;;;;;;;3.50;1.52;;;18.90;71.50;;;;;;2459093;53;21007;-76
2022/10/11 04:04:25;;;;;;;4.43;1.75;;;18.90;71.50;;;;;;2343503;53;20940;-77
2022/10/11 04:06:52;;;;;;;3.55;1.58;;;18.90;71.50;;;;;;2346650;53;21375;-79
2022/10/11 04:09:18;;;;;;;3.35;1.52;;;19.00;71.70;;;;;;2424303;53;20936;-77
2022/10/11 04:11:44;;;;;;;3.00;1.75;;;18.90;71.50;;;;;;2379032;53;20908;-76
2022/10/11 04:14:11;;;;;;;4.12;1.60;;;19.00;71.60;;;;;;2387258;53;20940;-77
2022/10/11 04:16:37;;;;;;;4.55;1.92;;;18.90;71.50;;;;;;2342829;53;21437;-76
2022/10/11 04:19:04;;;;;;;3.42;1.67;;;18.90;71.50;;;;;;2590561;53;21448;-76
2022/10/11 04:21:30;;;;;;;3.62;1.45;;;19.00;71.50;;;;;;2342497;53;20999;-78
2022/10/11 04:23:56;;;;;;;3.62;1.70;;;19.00;71.50;;;;;;2588386;53;21007;-78
2022/10/11 04:26:22;;;;;;;4.30;1.45;;;19.00;71.50;;;;;;2483207;53;21040;-76
2022/10/11 04:28:49;;;;;;;5.30;1.48;;;19.00;71.50;;;;;;2423254;53;20920;-78
2022/10/11 04:31:16;;;;;;;3.67;1.20;;;19.00;71.40;;;;;;2345448;53;21028;-76
2022/10/11 04:33:42;;;;;;;5.18;1.37;;;19.00;71.40;;;;;;2343008;53;21028;-76
2022/10/11 04:36:08;;;;;;;2.95;1.33;;;19.00;71.50;;;;;;2343165;54;20892;-76
2022/10/11 04:38:35;;;;;;;3.92;1.60;;;19.00;71.40;;;;;;2590016;53;20952;-79
2022/10/11 04:41:11;;;;;;;3.05;1.30;;;19.00;71.30;;;;;;2346351;53;20994;-76
2022/10/11 04:43:38;;;;;;;4.12;1.30;;;19.00;71.10;;;;;;2343116;54;21032;-76
2022/10/11 04:46:04;;;;;;;3.65;1.55;;;19.00;71.20;;;;;;2347706;53;20944;-76
2022/10/11 04:48:31;;;;;;;5.35;1.62;;;19.00;71.20;;;;;;2349054;53;20969;-77
2022/10/11 04:50:59;;;;;;;4.10;1.50;;;19.00;71.20;;;;;;2376911;53;20969;-78
2022/10/11 04:53:26;;;;;;;5.30;1.83;;;19.00;71.20;;;;;;2344598;53;20988;-76
2022/10/11 04:56:03;;;;;;;4.47;1.80;;;19.00;71.20;;;;;;2349149;53;20992;-77
2022/10/11 04:58:30;;;;;;;3.70;1.73;;;19.00;71.00;;;;;;2350634;53;22135;-76
2022/10/11 05:00:56;;;;;;;3.80;1.58;;;19.00;71.30;;;;;;2585215;53;21103;-76
2022/10/11 05:03:23;;;;;;;3.47;1.85;;;19.00;71.40;;;;;;2402096;53;20965;-77
2022/10/11 05:05:49;;;;;;;3.72;1.87;;;19.00;71.30;;;;;;2345320;53;20971;-78
2022/10/11 05:08:16;;;;;;;3.80;2.05;;;19.00;71.40;;;;;;2377194;53;21004;-76
2022/10/11 05:10:42;;;;;;;3.50;1.85;;;19.00;71.40;;;;;;2588888;52;20979;-76
2022/10/11 05:13:09;;;;;;;4.07;1.65;;;19.00;71.30;;;;;;2371988;53;21544;-78
2022/10/11 05:15:35;;;;;;;4.43;1.80;;;19.00;71.30;;;;;;2365707;53;20911;-79
2022/10/11 05:18:01;;;;;;;4.62;1.83;;;19.00;71.20;;;;;;2591211;53;20944;-76
2022/10/11 05:20:28;;;;;;;4.78;1.85;;;19.00;71.20;;;;;;2602751;52;21425;-79
2022/10/11 05:22:54;;;;;;;8.20;2.50;;;19.00;71.30;;;;;;2423323;53;21008;-78
2022/10/11 05:25:23;;;;;;;5.20;1.90;;;19.10;71.40;;;;;;2343352;53;21028;-76
2022/10/11 05:27:49;;;;;;;4.75;2.10;;;19.10;71.30;;;;;;2344619;53;21812;-76
2022/10/11 05:30:16;;;;;;;4.03;1.70;;;19.10;71.40;;;;;;2340186;54;21739;-76
2022/10/11 05:32:42;;;;;;;5.95;2.22;;;19.00;71.30;;;;;;2347091;53;21018;-76
2022/10/11 05:35:09;;;;;;;6.87;2.00;;;19.10;71.50;;;;;;2388701;52;20975;-78
2022/10/11 05:37:35;;;;;;;4.62;1.87;;;19.00;71.30;;;;;;2562972;53;20941;-78
2022/10/11 05:40:02;;;;;;;5.68;2.65;;;19.10;71.40;;;;;;2518670;52;21000;-76
2022/10/11 05:42:29;;;;;;;6.32;2.67;;;19.10;71.40;;;;;;2343644;53;21452;-76
2022/10/11 05:44:55;;;;;;;5.28;1.98;;;19.10;71.40;;;;;;2428630;53;20973;-78
2022/10/11 05:47:21;;;;;;;5.28;2.08;;;19.10;71.30;;;;;;2347326;53;20938;-76
2022/10/11 05:49:48;;;;;;;4.60;1.90;;;19.10;71.30;;;;;;2346168;53;21022;-76
2022/10/11 05:52:19;;;;;;;5.87;1.87;;;19.10;71.30;;;;;;2474192;52;20952;-77
2022/10/11 05:54:46;;;;;;;5.43;2.15;;;19.10;71.40;;;;;;2347937;53;20889;-76
2022/10/11 05:57:12;;;;;;;7.95;2.30;;;19.10;71.40;;;;;;2375301;52;21026;-76
2022/10/11 05:59:38;;;;;;;3.95;2.00;;;19.10;71.40;;;;;;2344641;53;21016;-78
2022/10/11 06:02:11;;;;;;;4.60;1.95;;;19.10;72.10;;;;;;2374435;53;21027;-76
2022/10/11 06:04:37;;;;;;;4.30;2.50;;;19.10;71.20;;;;;;2581669;52;20998;-76
2022/10/11 06:07:04;;;;;;;6.07;2.70;;;19.10;71.10;;;;;;2392888;52;20949;-76
2022/10/11 06:09:33;;;;;;;5.70;2.97;;;19.10;70.90;;;;;;2590038;53;21023;-79
2022/10/11 06:11:59;;;;;;;7.45;3.12;;;19.10;70.80;;;;;;2590516;53;20992;-78
2022/10/11 06:14:26;;;;;;;5.03;2.70;;;19.00;70.80;;;;;;2346506;53;20943;-76
2022/10/11 06:16:52;;;;;;;5.25;2.83;;;19.00;70.70;;;;;;2343646;53;20989;-77
2022/10/11 06:19:19;;;;;;;5.10;2.85;;;19.00;70.80;;;;;;2343642;54;21055;-78
2022/10/11 06:21:47;;;;;;;7.78;3.00;;;19.00;70.80;;;;;;2342976;54;21052;-77
2022/10/11 06:24:13;;;;;;;4.80;2.50;;;18.90;70.80;;;;;;2384028;53;20921;-76
2022/10/11 06:26:40;;;;;;;5.40;2.65;;;18.90;70.70;;;;;;2534103;53;21477;-79
2022/10/11 06:29:07;;;;;;;4.50;2.90;;;18.90;70.70;;;;;;2343132;53;20916;-76
2022/10/11 06:31:34;;;;;;;7.82;3.55;;;18.90;70.70;;;;;;2342619;54;21587;-76
2022/10/11 06:34:01;;;;;;;7.50;3.83;;;18.80;70.40;;;;;;2470142;54;21810;-79
2022/10/11 06:36:27;;;;;;;5.75;3.35;;;18.80;70.30;;;;;;2589663;53;20952;-76
2022/10/11 06:38:53;;;;;;;7.18;3.62;;;18.80;70.20;;;;;;2375925;53;20984;-76
2022/10/11 06:41:24;;;;;;;7.28;3.92;;;18.70;70.00;;;;;;2397595;52;20946;-78
2022/10/11 06:43:50;;;;;;;7.12;3.97;;;18.70;70.00;;;;;;2342333;53;21027;-76
2022/10/11 06:46:20;;;;;;;7.20;4.60;;;18.70;70.00;;;;;;2343751;54;21493;-76
2022/10/11 06:48:48;;;;;;;7.00;4.03;;;18.60;69.80;;;;;;2484382;53;20928;-76
2022/10/11 06:51:15;;;;;;;9.00;4.37;;;18.50;69.80;;;;;;2370804;53;20936;-76
2022/10/11 06:53:41;;;;;;;9.32;4.80;;;18.50;69.90;;;;;;2371257;53;21930;-77
2022/10/11 06:56:09;;;;;;;8.93;4.82;;;18.50;70.00;;;;;;2343641;54;20924;-76
2022/10/11 06:58:36;;;;;;;10.98;5.68;;;18.40;69.80;;;;;;2342723;53;20980;-76
2022/10/11 07:01:07;;;;;;;8.85;5.30;;;18.40;69.80;;;;;;2590593;53;20940;-76
2022/10/11 07:03:33;;;;;;;9.75;5.28;;;18.40;69.90;;;;;;2342727;54;21856;-78
2022/10/11 07:06:03;;;;;;;8.20;4.70;;;18.30;69.80;;;;;;2343649;54;20975;-76
2022/10/11 07:08:30;;;;;;;8.32;4.55;;;18.30;69.90;;;;;;2514711;53;21028;-76
2022/10/11 07:11:07;;;;;;;9.57;4.78;;;18.20;69.90;;;;;;2344071;54;20897;-77
2022/10/11 07:13:37;;;;;;;6.87;4.82;;;18.20;69.80;;;;;;2342147;53;20959;-78
2022/10/11 07:16:04;;;;;;;8.88;5.55;;;18.20;70.00;;;;;;2589954;53;20933;-78
2022/10/11 07:18:31;;;;;;;9.13;4.82;;;18.20;70.10;;;;;;2460743;53;21039;-78
2022/10/11 07:21:01;;;;;;;10.07;5.62;;;18.10;70.10;;;;;;2346118;53;20994;-76
2022/10/11 07:23:28;;;;;;;7.50;4.75;;;18.10;70.10;;;;;;2343736;53;20984;-77
2022/10/11 07:25:54;;;;;;;9.32;5.07;;;18.10;70.30;;;;;;2342149;53;20936;-78
2022/10/11 07:28:35;;;;;;;10.27;5.45;;;18.10;70.40;;;;;;2345855;53;21003;-77
2022/10/11 07:31:13;;;;;;;9.50;6.07;;;18.10;70.10;;;;;;2364898;53;20938;-79
2022/10/11 07:33:39;;;;;;;9.00;5.72;;;18.10;70.20;;;;;;2343337;53;21429;-77
2022/10/11 07:36:08;;;;;;;9.40;6.10;;;18.10;70.40;;;;;;2343173;53;21438;-76
2022/10/11 07:38:40;;;;;;;9.75;6.03;;;18.10;70.50;;;;;;2343312;53;20964;-77
2022/10/11 07:41:07;;;;;;;9.93;5.85;;;18.10;70.50;;;;;;2363087;53;20957;-76
2022/10/11 07:43:33;;;;;;;11.23;6.80;;;18.10;70.50;;;;;;2348964;53;21524;-76
2022/10/11 07:46:08;;;;;;;10.65;6.47;;;18.10;70.50;;;;;;2343527;53;21445;-76
2022/10/11 07:48:35;;;;;;;10.50;5.87;;;18.10;70.60;;;;;;2343948;54;20952;-77
2022/10/11 07:51:06;;;;;;;12.45;7.47;;;18.10;70.70;;;;;;2344018;53;20968;-76
2022/10/11 07:54:14;;;;;;;10.68;7.37;;;18.00;70.60;;;;;;2368695;53;20963;-76
2022/10/11 07:56:41;;;;;;;10.77;7.22;;;18.10;70.70;;;;;;2343516;53;20976;-76
2022/10/11 07:59:08;;;;;;;11.40;7.47;;;18.10;70.70;;;;;;2344462;53;20948;-76
2022/10/11 08:01:37;;;;;;;12.15;7.40;;;18.10;70.70;;;;;;2451846;53;20911;-76
2022/10/11 08:04:05;;;;;;;9.85;6.03;;;18.10;70.60;;;;;;2347544;53;21097;-76
2022/10/11 08:06:31;;;;;;;9.75;6.57;;;18.10;70.80;;;;;;2586494;53;21000;-76
2022/10/11 08:08:59;;;;;;;12.35;6.75;;;18.10;70.90;;;;;;2406962;53;21028;-78
2022/10/11 08:11:35;;;;;;;11.98;6.90;;;18.20;71.10;;;;;;2341579;53;20991;-79
2022/10/11 08:14:04;;;;;;;13.75;8.10;;;18.20;70.80;;;;;;2343941;54;20901;-78
2022/10/11 08:16:30;;;;;;;11.02;6.78;;;18.20;71.10;;;;;;2343166;53;20940;-77
2022/10/11 08:18:56;;;;;;;10.98;6.28;;;18.30;71.30;;;;;;2343879;54;20972;-77
2022/10/11 08:21:25;;;;;;;9.65;5.87;;;18.30;71.50;;;;;;2342993;53;20956;-79
2022/10/11 08:23:53;;;;;;;9.60;6.93;;;18.30;71.70;;;;;;2589391;53;20944;-76
2022/10/11 08:26:20;;;;;;;12.85;8.45;;;18.30;71.70;;;;;;2590112;53;21441;-79
2022/10/11 08:28:46;;;;;;;12.15;8.40;;;18.40;71.70;;;;;;2587237;52;20971;-77
2022/10/11 08:31:13;;;;;;;12.52;8.48;;;18.40;71.50;;;;;;2342463;53;20932;-77
2022/10/11 08:33:39;;;;;;;12.60;8.68;;;18.50;71.40;;;;;;2587689;53;21410;-76
2022/10/11 08:36:06;;;;;;;11.93;7.90;;;18.50;71.40;;;;;;2587352;53;20976;-77
2022/10/11 08:38:34;;;;;;;11.60;7.82;;;18.60;71.40;;;;;;2556996;52;21460;-76
2022/10/11 08:41:00;;;;;;;13.30;8.13;;;18.60;71.40;;;;;;2342600;54;20976;-78
2022/10/11 08:43:39;;;;;;;12.60;9.07;;;18.60;71.40;;;;;;2342334;54;20932;-76
2022/10/11 08:46:06;;;;;;;14.43;9.15;;;18.70;72.00;;;;;;2341720;54;20947;-76
2022/10/11 08:48:43;;;;;;;11.43;8.80;;;18.70;71.30;;;;;;2406826;53;20955;-77
2022/10/11 08:51:18;;;;;;;14.68;9.20;;;18.70;71.00;;;;;;2446977;52;21342;-76
2022/10/11 08:53:57;;;;;;;14.90;8.65;;;18.80;71.00;;;;;;2343004;54;20953;-76
2022/10/11 08:56:23;;;;;;;14.32;8.57;;;18.70;70.90;;;;;;2589957;53;21063;-76
2022/10/11 08:58:59;;;;;;;13.45;8.68;;;18.80;71.00;;;;;;2342488;53;21898;-76
2022/10/11 09:01:26;;;;;;;13.98;8.45;;;18.80;70.70;;;;;;2343168;54;20932;-79
2022/10/11 09:03:52;;;;;;;11.90;8.35;;;18.80;70.90;;;;;;2343019;54;21040;-76
2022/10/11 09:07:17;;;;;;;14.77;9.02;;;18.80;71.00;;;;;;2343067;54;21457;-78
2022/10/11 09:10:10;;;;;;;13.15;9.00;;;18.90;70.30;;;;;;2543329;53;20984;-76
2022/10/11 09:15:25;;;;;;;11.88;8.45;;;18.90;70.70;;;;;;2344666;53;20940;-76
2022/10/11 09:18:17;;;;;;;10.43;6.57;;;18.90;70.00;;;;;;2590170;53;20988;-76
2022/10/11 09:21:11;;;;;;;12.32;7.70;;;18.90;70.20;;;;;;2450757;53;20967;-78
2022/10/11 09:24:18;;;;;;;11.20;7.85;;;18.90;70.30;;;;;;2354927;52;20948;-77
2022/10/11 09:26:55;;;;;;;12.37;7.55;;;18.90;70.30;;;;;;2343435;53;20944;-77
2022/10/11 09:29:48;;;;;;;10.48;7.65;;;19.00;70.00;;;;;;2587396;53;20940;-76
2022/10/11 09:32:16;;;;;;;11.95;7.72;;;19.00;69.70;;;;;;2342745;53;21762;-77
2022/10/11 09:34:42;;;;;;;11.52;7.65;;;19.00;70.30;;;;;;2349299;53;22256;-76
2022/10/11 09:37:31;;;;;;;10.73;6.62;;;18.90;70.20;;;;;;2588994;52;21713;-76
2022/10/11 09:41:37;;;;;;;9.30;6.05;;;18.90;69.60;;;;;;2436007;53;20964;-78
2022/10/11 09:44:04;;;;;;;8.55;4.57;;;18.90;69.20;;;;;;2589557;53;20940;-76
2022/10/11 09:46:35;;;;;;;9.25;5.45;;;18.90;69.90;;;;;;2476503;53;20920;-78
2022/10/11 09:49:03;;;;;;;9.75;5.78;;;18.90;69.60;;;;;;2369607;53;20976;-77
2022/10/11 09:51:30;;;;;;;9.05;4.70;;;18.80;69.50;;;;;;2371701;53;21060;-77
2022/10/11 09:54:01;;;;;;;9.15;5.07;;;18.80;69.50;;;;;;2379293;53;21396;-77
2022/10/11 09:56:28;;;;;;;9.45;5.10;;;18.80;69.30;;;;;;2468796;53;20988;-76
2022/10/11 09:59:28;;;;;;;9.93;5.45;;;18.80;69.50;;;;;;2345057;53;21519;-76
2022/10/11 10:02:21;;;;;;;9.35;4.50;;;18.80;68.80;;;;;;2343186;53;20960;-77
2022/10/11 10:05:01;;;;;;;8.93;3.92;;;18.80;68.90;;;;;;2522973;53;21043;-76
2022/10/11 10:07:28;;;;;;;8.25;3.70;;;18.80;69.10;;;;;;2345635;53;20933;-76
2022/10/11 10:09:55;;;;;;;8.00;3.58;;;18.80;69.30;;;;;;2452285;54;21453;-76
2022/10/11 10:12:31;;;;;;;9.45;3.53;;;18.80;69.20;;;;;;2348880;53;21011;-76
2022/10/11 10:15:27;;;;;;;9.45;3.62;;;18.80;69.20;;;;;;2343521;53;21080;-77
2022/10/11 10:17:54;;;;;;;5.18;2.92;;;18.80;68.60;;;;;;2413287;53;20943;-76
2022/10/11 10:20:24;;;;;;;7.62;3.50;;;18.80;69.20;;;;;;2343866;53;20960;-79
2022/10/11 10:22:50;;;;;;;7.40;4.00;;;18.80;69.20;;;;;;2590077;53;20988;-76
2022/10/11 10:25:37;;;;;;;9.02;4.22;;;18.80;69.20;;;;;;2354787;53;20977;-76
2022/10/11 10:28:25;;;;;;;8.15;3.37;;;18.80;68.40;;;;;;2343858;53;21865;-78
2022/10/11 10:30:56;;;;;;;6.00;3.67;;;18.90;68.50;;;;;;2408542;53;21008;-77
2022/10/11 10:33:32;;;;;;;6.75;3.55;;;18.80;68.90;;;;;;2588947;53;20965;-77
2022/10/11 10:36:14;;;;;;;6.68;3.00;;;18.90;68.90;;;;;;2342589;53;20940;-77
2022/10/11 10:38:46;;;;;;;7.78;3.00;;;18.90;68.80;;;;;;2529565;53;20996;-79
2022/10/11 10:41:16;;;;;;;6.47;3.20;;;18.90;69.40;;;;;;2343819;54;21423;-80
2022/10/11 10:43:43;;;;;;;4.45;2.87;;;18.90;69.40;;;;;;2342858;53;21746;-77
2022/10/11 10:47:05;;;;;;;5.93;2.78;;;18.90;69.30;;;;;;2408955;53;20956;-77
2022/10/11 10:49:44;;;;;;;7.03;3.33;;;19.00;68.50;;;;;;2343885;54;20944;-79
2022/10/11 10:52:43;;;;;;;5.35;2.72;;;19.00;68.70;;;;;;2396227;53;21467;-77
2022/10/11 10:55:41;;;;;;;6.37;3.30;;;19.00;68.90;;;;;;2587702;52;21493;-78
2022/10/11 10:58:29;;;;;;;10.55;3.12;;;19.10;68.40;;;;;;2323655;54;21031;-77
2022/10/11 11:01:01;;;;;;;6.70;3.22;;;19.10;68.30;;;;;;2343354;53;20964;-77
2022/10/11 11:03:59;;;;;;;7.05;3.30;;;19.10;68.80;;;;;;2344258;54;21072;-78
2022/10/11 11:06:44;;;;;;;6.35;2.83;;;19.10;69.20;;;;;;2343763;54;21051;-79
2022/10/11 11:09:35;;;;;;;7.72;3.00;;;19.10;68.80;;;;;;2590645;53;21678;-78
2022/10/11 11:13:39;;;;;;;5.55;2.72;;;19.20;68.40;;;;;;2590377;53;20909;-77
2022/10/11 11:26:06;;;;;;;5.50;3.22;;;19.30;68.70;;;;;;2344063;54;21086;-77
2022/10/11 11:28:52;;;;;;;6.43;2.58;;;19.40;68.70;;;;;;2343099;54;21845;-77
2022/10/11 11:38:15;;;;;;;6.43;2.60;;;19.50;68.80;;;;;;2589816;53;20976;-77
2022/10/11 11:40:43;;;;;;;5.10;2.10;;;19.60;68.70;;;;;;2345118;53;20944;-77
2022/10/11 11:45:21;;;;;;;8.15;2.80;;;19.60;70.00;;;;;;2343445;54;21366;-78
2022/10/11 11:48:23;;;;;;;5.80;2.50;;;19.60;68.30;;;;;;2343949;53;20927;-79
2022/10/11 11:51:02;;;;;;;6.72;2.85;;;19.70;68.40;;;;;;2342391;54;20960;-77
2022/10/11 11:55:09;;;;;;;6.65;2.70;;;19.70;68.90;;;;;;2347025;54;21063;-77
2022/10/11 11:58:47;;;;;;;4.65;2.20;;;19.70;68.70;;;;;;2589749;52;21403;-76
2022/10/11 12:01:54;;;;;;;7.37;2.35;;;19.80;68.00;;;;;;2343695;54;20999;-76
2022/10/11 12:04:37;;;;;;;5.53;2.53;;;19.80;68.40;;;;;;2347163;53;20896;-79
2022/10/11 12:07:16;;;;;;;5.72;2.47;;;19.90;68.50;;;;;;2403619;52;20960;-76
2022/10/11 12:09:50;;;;;;;6.43;2.67;;;19.90;69.00;;;;;;2346648;53;20960;-76
2022/10/11 12:13:01;;;;;;;5.15;2.28;;;20.00;69.00;;;;;;2343308;54;21017;-76
2022/10/11 12:15:27;;;;;;;6.30;2.40;;;20.00;67.80;;;;;;2590132;53;20980;-79
2022/10/11 12:18:04;;;;;;;7.07;1.92;;;20.00;68.80;;;;;;2378796;53;21799;-77
2022/10/11 12:20:31;;;;;;;5.93;2.15;;;20.10;68.50;;;;;;2346936;53;21040;-78
2022/10/11 12:23:03;;;;;;;4.12;2.00;;;20.10;68.90;;;;;;2520147;52;21081;-78
2022/10/11 12:25:34;;;;;;;5.00;2.07;;;20.10;68.70;;;;;;2343313;54;20940;-77
2022/10/11 12:28:47;;;;;;;4.75;2.10;;;20.20;68.60;;;;;;2342133;54;21674;-78
2022/10/11 12:32:44;;;;;;;6.43;2.40;;;20.20;68.60;;;;;;2394368;53;20932;-77
2022/10/11 12:35:41;;;;;;;5.82;2.08;;;20.30;67.60;;;;;;2346397;53;20956;-77
2022/10/11 12:41:54;;;;;;;7.62;2.58;;;20.30;67.30;;;;;;2559983;53;21588;-77
2022/10/11 12:44:25;;;;;;;6.15;1.90;;;20.40;67.70;;;;;;2344530;53;20960;-76
2022/10/11 12:50:04;;;;;;;4.50;1.95;;;20.40;68.10;;;;;;2344114;54;21790;-78
2022/10/11 12:53:00;;;;;;;6.05;2.03;;;20.40;67.50;;;;;;2590214;53;20969;-77
2022/10/11 13:02:47;;;;;;;4.78;2.55;;;20.40;67.10;;;;;;2403198;53;20968;-77
2022/10/11 13:05:34;;;;;;;4.22;2.10;;;20.40;67.50;;;;;;2342718;53;20940;-77
2022/10/11 13:08:02;;;;;;;10.40;2.30;;;20.40;66.90;;;;;;2331261;54;21069;-80
2022/10/11 13:10:41;;;;;;;5.20;2.70;;;20.40;67.70;;;;;;2343737;54;20952;-77
2022/10/11 13:13:14;;;;;;;6.30;2.45;;;20.40;67.50;;;;;;2342723;53;20940;-78
2022/10/11 13:15:41;;;;;;;8.60;2.40;;;20.30;67.40;;;;;;2348769;53;20931;-77
2022/10/11 13:18:12;;;;;;;8.20;2.40;;;20.30;67.50;;;;;;2343848;53;20949;-77
2022/10/11 13:20:39;;;;;;;4.62;2.28;;;20.30;67.30;;;;;;2343745;53;21000;-78
2022/10/11 13:23:24;;;;;;;6.47;2.60;;;20.40;67.80;;;;;;2343081;53;20948;-77
2022/10/11 13:25:52;;;;;;;5.55;2.87;;;20.40;67.10;;;;;;2588801;53;20932;-77
2022/10/11 13:28:18;;;;;;;8.20;2.67;;;20.40;68.60;;;;;;2371466;53;21442;-79
2022/10/11 13:30:46;;;;;;;5.30;2.78;;;20.40;67.80;;;;;;2526934;53;20920;-77
2022/10/11 13:33:19;;;;;;;8.00;2.60;;;20.40;67.70;;;;;;2520240;53;20992;-77
2022/10/11 13:35:46;;;;;;;6.40;2.67;;;20.40;67.40;;;;;;2455484;53;21513;-77
2022/10/11 13:38:26;;;;;;;5.40;2.85;;;20.40;67.70;;;;;;2535635;53;20987;-78
2022/10/11 13:40:54;;;;;;;5.68;2.75;;;20.50;67.10;;;;;;2360473;53;22026;-78
2022/10/11 13:43:24;;;;;;;6.25;2.70;;;20.50;67.70;;;;;;2401920;53;21045;-77
2022/10/11 13:45:52;;;;;;;6.75;3.10;;;20.50;67.50;;;;;;2342778;53;21004;-78
2022/10/11 13:48:18;;;;;;;6.57;2.55;;;20.50;67.50;;;;;;2342774;53;20937;-78
2022/10/11 13:51:02;;;;;;;5.28;2.47;;;20.50;67.40;;;;;;2342897;54;21734;-78
2022/10/11 13:53:29;;;;;;;5.25;2.35;;;20.50;67.30;;;;;;2468235;53;1241896;-78
2022/10/11 13:56:02;;;;;;;6.60;2.30;;;20.50;67.50;;;;;;2514133;53;21023;-78
2022/10/11 13:58:41;;;;;;;6.18;2.50;;;20.60;67.40;;;;;;2560876;53;21011;-77
2022/10/11 14:01:27;;;;;;;5.72;2.35;;;20.60;67.50;;;;;;2495356;53;20992;-79
2022/10/11 14:03:59;;;;;;;5.95;2.42;;;20.60;66.70;;;;;;2343019;54;21508;-77
2022/10/11 14:06:47;;;;;;;6.00;2.50;;;20.60;67.50;;;;;;2589473;52;20927;-78
2022/10/11 14:09:29;;;;;;;3.67;2.10;;;20.70;66.70;;;;;;2343712;53;20932;-77
2022/10/11 14:12:24;;;;;;;3.73;2.10;;;20.70;67.40;;;;;;2343623;54;21032;-78